Time;durP1;ratioP1;P1;durP2;ratioP2;P2;SDS_P1;SDS_P2;PMS_P1;PMS_P2;Temp;Humidity;BMP_temperature;BMP_pressure;BME280_temperature;BME280_humidity;BME280_pressure;Samples;Min_cycle;Max_cycle;Signal;HPM_P1;HPM_P2
2023/08/23 00:00:08;;;;;;;0.10;0.10;;;25.80;99.90;;;;;;5077746;28;20399;-82
2023/08/23 00:02:33;;;;;;;0.03;0.03;;;25.80;99.90;;;;;;5079198;28;20028;-80
2023/08/23 00:04:59;;;;;;;0.00;0.00;;;25.70;99.90;;;;;;5084674;28;20031;-79
2023/08/23 00:07:25;;;;;;;0.30;0.30;;;25.60;99.90;;;;;;5069883;28;20350;-81
2023/08/23 00:09:51;;;;;;;0.00;0.00;;;25.60;99.90;;;;;;5065277;28;20031;-80
2023/08/23 00:12:17;;;;;;;5.18;1.05;;;25.60;99.90;;;;;;5073713;28;20101;-80
2023/08/23 00:14:43;;;;;;;0.00;0.00;;;25.50;99.90;;;;;;5077130;28;20043;-80
2023/08/23 00:17:09;;;;;;;0.00;0.00;;;25.50;99.90;;;;;;5069512;28;20616;-82
2023/08/23 00:19:34;;;;;;;0.20;0.20;;;25.60;99.90;;;;;;5073531;28;20028;-80
2023/08/23 00:22:02;;;;;;;0.00;0.00;;;25.50;99.90;;;;;;5074627;28;20031;-79
2023/08/23 00:24:28;;;;;;;0.00;0.00;;;25.50;99.90;;;;;;5076505;28;20110;-80
2023/08/23 00:26:55;;;;;;;0.20;0.20;;;25.40;99.90;;;;;;5078693;28;20103;-81
2023/08/23 00:29:20;;;;;;;0.98;0.52;;;25.30;99.90;;;;;;5084529;28;20048;-80
2023/08/23 00:31:46;;;;;;;0.00;0.00;;;25.40;99.90;;;;;;5083873;28;20434;-79
2023/08/23 00:34:12;;;;;;;0.10;0.10;;;25.40;99.90;;;;;;5076438;28;20663;-79
2023/08/23 00:36:38;;;;;;;0.20;0.20;;;25.30;99.90;;;;;;5081108;28;20025;-81
2023/08/23 00:39:03;;;;;;;0.00;0.00;;;25.30;99.90;;;;;;5084612;28;20247;-80
2023/08/23 00:41:29;;;;;;;0.00;0.00;;;25.40;99.90;;;;;;5072654;28;20039;-80
2023/08/23 00:43:55;;;;;;;0.70;0.30;;;25.40;99.90;;;;;;5072945;28;20030;-79
2023/08/23 00:46:21;;;;;;;0.10;0.10;;;25.40;99.90;;;;;;5070271;28;20033;-79
2023/08/23 00:48:49;;;;;;;;;;;25.40;99.90;;;;;;5067411;28;20064;-80
2023/08/23 00:51:15;;;;;;;0.00;0.00;;;25.30;99.90;;;;;;5064828;28;19911;-79
2023/08/23 00:53:41;;;;;;;;;;;25.30;99.90;;;;;;5079446;28;20065;-80
2023/08/23 00:56:07;;;;;;;;;;;25.30;99.90;;;;;;5070468;28;19909;-79
2023/08/23 00:58:33;;;;;;;0.93;0.60;;;25.40;99.90;;;;;;5054162;28;20327;-80
2023/08/23 01:00:59;;;;;;;;;;;25.40;99.90;;;;;;5078764;28;20285;-80
2023/08/23 01:03:25;;;;;;;0.10;0.10;;;25.30;99.90;;;;;;5077301;28;19915;-80
2023/08/23 01:06:05;;;;;;;0.10;0.10;;;25.30;99.90;;;;;;5075809;28;20028;-81
2023/08/23 01:08:43;;;;;;;0.35;0.30;;;25.40;99.90;;;;;;5071931;28;20787;-81
2023/08/23 01:11:50;;;;;;;0.47;0.47;;;25.30;99.90;;;;;;5063963;28;20052;-83
2023/08/23 01:14:37;;;;;;;2.45;1.90;;;25.10;99.90;;;;;;5077622;28;20027;-81
2023/08/23 01:17:04;;;;;;;0.00;0.00;;;25.20;99.90;;;;;;5058076;28;20056;-82
2023/08/23 01:19:44;;;;;;;0.10;0.10;;;25.10;99.90;;;;;;5079979;28;20127;-80
2023/08/23 01:22:21;;;;;;;0.00;0.00;;;25.00;99.90;;;;;;5068923;28;20110;-81
2023/08/23 01:24:47;;;;;;;0.00;0.00;;;25.10;99.90;;;;;;5077022;28;20033;-80
2023/08/23 01:27:14;;;;;;;0.00;0.00;;;25.00;99.90;;;;;;5078012;28;20055;-80
2023/08/23 01:29:39;;;;;;;;;;;25.10;99.90;;;;;;5064982;28;20024;-80
2023/08/23 01:32:43;;;;;;;0.28;0.28;;;25.10;99.90;;;;;;5080382;28;19966;-80
2023/08/23 01:35:19;;;;;;;0.00;0.00;;;25.00;99.90;;;;;;5070173;28;20107;-79
2023/08/23 01:37:50;;;;;;;0.00;0.00;;;25.00;99.90;;;;;;5080346;28;20040;-79
2023/08/23 01:40:17;;;;;;;0.20;0.20;;;25.00;99.90;;;;;;5078516;28;20036;-80
2023/08/23 01:42:44;;;;;;;0.17;0.17;;;25.00;99.90;;;;;;5079094;28;20097;-80
2023/08/23 01:45:10;;;;;;;0.00;0.00;;;24.80;99.90;;;;;;5066210;28;20130;-79
2023/08/23 01:47:36;;;;;;;0.13;0.13;;;24.90;99.90;;;;;;5075043;28;20028;-80
2023/08/23 01:50:02;;;;;;;0.10;0.10;;;24.80;99.90;;;;;;5081643;28;20035;-79
2023/08/23 01:52:28;;;;;;;0.00;0.00;;;24.80;99.90;;;;;;5075658;28;20228;-82
2023/08/23 01:54:54;;;;;;;0.20;0.20;;;24.80;99.90;;;;;;5072988;28;20028;-80
2023/08/23 01:57:19;;;;;;;0.10;0.10;;;24.70;99.90;;;;;;5076654;28;20027;-80
2023/08/23 01:59:47;;;;;;;0.20;0.20;;;24.70;99.90;;;;;;5075492;28;20821;-79
2023/08/23 02:02:12;;;;;;;0.00;0.00;;;24.60;99.90;;;;;;5061052;28;20032;-80
2023/08/23 02:04:38;;;;;;;0.60;0.60;;;24.70;99.90;;;;;;5074674;28;20035;-81
2023/08/23 02:07:04;;;;;;;0.17;0.17;;;24.60;99.90;;;;;;5070177;28;20031;-80
2023/08/23 02:09:31;;;;;;;0.00;0.00;;;24.60;99.90;;;;;;5069810;28;20028;-80
2023/08/23 02:11:57;;;;;;;0.10;0.10;;;24.60;99.90;;;;;;5075151;28;20969;-82
2023/08/23 02:14:23;;;;;;;0.50;0.23;;;24.60;99.90;;;;;;5074089;28;20032;-83
2023/08/23 02:16:48;;;;;;;0.43;0.43;;;24.60;99.90;;;;;;5053236;28;21216;-80
2023/08/23 02:19:14;;;;;;;0.20;0.20;;;24.60;99.90;;;;;;5050281;28;20080;-81
2023/08/23 02:21:40;;;;;;;0.10;0.10;;;24.60;99.90;;;;;;5048920;28;20778;-81
2023/08/23 02:24:07;;;;;;;0.10;0.10;;;24.60;99.90;;;;;;5046797;28;20033;-80
2023/08/23 02:26:35;;;;;;;0.05;0.05;;;24.60;99.90;;;;;;5055392;28;20420;-82
2023/08/23 02:29:01;;;;;;;0.00;0.00;;;24.60;99.90;;;;;;5061645;28;20490;-83
2023/08/23 02:31:27;;;;;;;0.25;0.25;;;24.60;99.90;;;;;;5061801;28;20032;-82
2023/08/23 02:33:52;;;;;;;0.30;0.30;;;24.60;99.90;;;;;;5057495;28;20025;-83
2023/08/23 02:36:18;;;;;;;0.00;0.00;;;24.60;99.90;;;;;;5062098;28;20538;-82
2023/08/23 02:38:44;;;;;;;0.10;0.10;;;24.60;99.90;;;;;;5044390;28;20108;-80
2023/08/23 02:41:10;;;;;;;0.00;0.00;;;24.60;99.90;;;;;;5061343;28;20021;-82
2023/08/23 02:43:35;;;;;;;0.33;0.33;;;24.50;99.90;;;;;;5049225;28;20021;-82
2023/08/23 02:46:01;;;;;;;0.05;0.05;;;24.40;99.90;;;;;;5050064;28;20456;-81
2023/08/23 02:48:29;;;;;;;0.03;0.03;;;24.40;99.90;;;;;;5056856;28;20033;-84
2023/08/23 02:50:55;;;;;;;0.00;0.00;;;24.30;99.90;;;;;;5046030;28;20025;-84
2023/08/23 02:53:20;;;;;;;0.03;0.03;;;24.30;99.90;;;;;;5042595;28;20032;-82
2023/08/23 02:55:46;;;;;;;0.10;0.10;;;24.30;99.90;;;;;;5047491;28;20032;-81
2023/08/23 02:58:12;;;;;;;0.00;0.00;;;24.30;99.90;;;;;;5057751;28;20029;-83
2023/08/23 03:00:37;;;;;;;0.97;0.63;;;24.30;99.90;;;;;;5056425;28;20056;-84
2023/08/23 03:03:03;;;;;;;0.43;0.40;;;24.30;99.90;;;;;;5045663;28;20529;-82
2023/08/23 03:05:29;;;;;;;0.13;0.13;;;24.20;99.90;;;;;;5052629;28;20036;-82
2023/08/23 03:07:54;;;;;;;0.00;0.00;;;24.20;99.90;;;;;;5050356;28;20040;-84
2023/08/23 03:10:20;;;;;;;0.30;0.30;;;24.10;99.90;;;;;;5052280;28;20052;-82
2023/08/23 03:12:46;;;;;;;0.00;0.00;;;24.10;99.90;;;;;;5057872;28;20120;-82
2023/08/23 03:15:12;;;;;;;0.00;0.00;;;24.00;99.90;;;;;;5054901;28;20042;-82
2023/08/23 03:17:37;;;;;;;0.00;0.00;;;23.80;99.90;;;;;;5071878;28;20041;-81
2023/08/23 03:20:04;;;;;;;0.00;0.00;;;23.70;99.90;;;;;;5076183;28;20021;-81
2023/08/23 03:22:29;;;;;;;;;;;23.80;99.90;;;;;;5074295;28;20387;-80
2023/08/23 03:24:55;;;;;;;;;;;23.90;99.90;;;;;;5071588;28;19917;-81
2023/08/23 03:27:22;;;;;;;0.00;0.00;;;24.00;99.90;;;;;;5057455;28;19959;-80
2023/08/23 03:29:47;;;;;;;;;;;24.00;99.90;;;;;;5069997;28;20017;-82
2023/08/23 03:32:16;;;;;;;;;;;23.90;99.90;;;;;;5051996;28;19949;-81
2023/08/23 03:34:42;;;;;;;0.35;0.35;;;24.00;99.90;;;;;;5071984;28;20480;-80
2023/08/23 03:37:08;;;;;;;0.00;0.00;;;23.90;99.90;;;;;;5051319;28;20033;-82
2023/08/23 03:39:33;;;;;;;0.20;0.20;;;23.80;99.90;;;;;;5058428;28;20024;-80
2023/08/23 03:41:59;;;;;;;0.53;0.27;;;23.80;99.90;;;;;;5074843;28;20105;-81
2023/08/23 03:44:25;;;;;;;0.10;0.10;;;23.60;99.90;;;;;;5053663;28;20028;-84
2023/08/23 03:46:50;;;;;;;0.00;0.00;;;23.60;99.90;;;;;;5070301;28;20049;-81
2023/08/23 03:49:16;;;;;;;0.10;0.10;;;23.60;99.90;;;;;;5074413;28;20111;-81
2023/08/23 03:51:42;;;;;;;0.20;0.20;;;23.50;99.90;;;;;;5073036;28;20032;-82
2023/08/23 03:54:07;;;;;;;0.20;0.20;;;23.50;99.90;;;;;;5067624;28;20258;-83
2023/08/23 03:56:33;;;;;;;0.20;0.20;;;23.50;99.90;;;;;;5069688;28;20494;-82
2023/08/23 03:58:59;;;;;;;0.00;0.00;;;23.40;99.90;;;;;;5074914;28;20038;-84
2023/08/23 04:01:25;;;;;;;0.30;0.30;;;23.40;99.90;;;;;;5080705;28;20113;-84
2023/08/23 04:03:51;;;;;;;0.10;0.10;;;23.40;99.90;;;;;;5077963;28;20108;-83
2023/08/23 04:06:16;;;;;;;0.07;0.07;;;23.30;99.90;;;;;;5077595;28;20032;-82
2023/08/23 04:08:42;;;;;;;0.00;0.00;;;23.30;99.90;;;;;;5065373;28;20017;-82
2023/08/23 04:11:08;;;;;;;0.00;0.00;;;23.30;99.90;;;;;;5075151;28;20055;-82
2023/08/23 04:13:34;;;;;;;0.00;0.00;;;23.30;99.90;;;;;;5070194;28;20025;-82
2023/08/23 04:15:59;;;;;;;0.07;0.07;;;23.20;99.90;;;;;;5055386;28;20155;-82
2023/08/23 04:18:25;;;;;;;0.10;0.10;;;23.30;99.90;;;;;;5080290;28;20028;-81
2023/08/23 04:21:01;;;;;;;0.17;0.17;;;23.30;99.90;;;;;;5077779;28;20024;-80
2023/08/23 04:23:27;;;;;;;0.00;0.00;;;23.30;99.90;;;;;;5079810;28;20030;-82
2023/08/23 04:25:52;;;;;;;0.43;0.43;;;23.20;99.90;;;;;;5080731;28;20028;-81
2023/08/23 04:28:18;;;;;;;0.13;0.13;;;23.00;99.90;;;;;;5077025;28;20032;-82
2023/08/23 04:30:44;;;;;;;0.17;0.17;;;23.10;99.90;;;;;;5071586;28;20024;-83
2023/08/23 04:33:10;;;;;;;0.00;0.00;;;23.10;99.90;;;;;;5064986;28;20059;-84
2023/08/23 04:35:39;;;;;;;0.28;0.25;;;23.10;99.90;;;;;;5072598;28;20063;-83
2023/08/23 04:38:09;;;;;;;0.00;0.00;;;23.00;99.90;;;;;;5071854;28;20090;-84
2023/08/23 04:40:35;;;;;;;0.05;0.05;;;23.10;99.90;;;;;;5073594;28;20016;-83
2023/08/23 04:43:01;;;;;;;0.10;0.10;;;23.00;99.90;;;;;;5074752;28;20089;-84
2023/08/23 04:45:27;;;;;;;1.03;0.93;;;22.90;99.90;;;;;;5079399;28;20024;-82
2023/08/23 04:47:53;;;;;;;0.57;0.57;;;22.90;99.90;;;;;;5081388;28;20694;-84
2023/08/23 04:50:19;;;;;;;0.00;0.00;;;22.90;99.90;;;;;;5074345;28;20055;-83
2023/08/23 04:52:45;;;;;;;0.00;0.00;;;22.90;99.90;;;;;;5070915;28;20027;-83
2023/08/23 04:55:10;;;;;;;1.07;0.73;;;22.90;99.90;;;;;;5081215;28;20032;-82
2023/08/23 04:57:37;;;;;;;0.00;0.00;;;22.90;99.90;;;;;;5075835;28;20082;-86
2023/08/23 05:00:06;;;;;;;0.00;0.00;;;22.90;99.90;;;;;;5070437;28;20098;-85
2023/08/23 05:02:32;;;;;;;0.00;0.00;;;22.90;99.90;;;;;;5077909;28;20403;-84
2023/08/23 05:04:58;;;;;;;1.50;0.63;;;23.00;99.90;;;;;;5072166;28;20198;-84
2023/08/23 05:07:23;;;;;;;0.50;0.50;;;23.00;99.90;;;;;;5073171;28;20042;-84
2023/08/23 05:09:49;;;;;;;0.00;0.00;;;23.00;99.90;;;;;;5057537;28;20028;-84
2023/08/23 05:12:15;;;;;;;0.00;0.00;;;23.00;99.90;;;;;;5072603;28;20105;-82
2023/08/23 05:14:40;;;;;;;0.10;0.10;;;23.10;99.90;;;;;;5083934;28;20719;-80
2023/08/23 05:17:06;;;;;;;0.97;0.50;;;23.10;99.90;;;;;;5085890;28;20079;-80
2023/08/23 05:19:32;;;;;;;0.00;0.00;;;23.00;99.90;;;;;;5075385;28;20027;-80
2023/08/23 05:21:59;;;;;;;0.00;0.00;;;23.00;99.90;;;;;;5071738;28;20048;-83
2023/08/23 05:24:24;;;;;;;0.00;0.00;;;23.20;99.90;;;;;;5073677;28;20051;-81
2023/08/23 05:26:50;;;;;;;0.00;0.00;;;23.20;99.90;;;;;;5069018;28;20021;-81
2023/08/23 05:29:16;;;;;;;0.00;0.00;;;23.30;99.90;;;;;;5081357;28;20155;-81
2023/08/23 05:31:41;;;;;;;0.13;0.13;;;23.40;99.90;;;;;;5059622;28;20027;-82
2023/08/23 05:34:07;;;;;;;0.00;0.00;;;23.50;99.90;;;;;;5080044;28;20032;-82
2023/08/23 05:36:33;;;;;;;0.10;0.10;;;23.60;99.90;;;;;;5078837;28;20024;-85
2023/08/23 05:39:02;;;;;;;0.30;0.30;;;23.60;99.90;;;;;;5080164;28;20050;-78
2023/08/23 05:41:28;;;;;;;0.00;0.00;;;24.00;99.90;;;;;;5070551;28;20024;-81
2023/08/23 05:43:54;;;;;;;0.10;0.10;;;24.30;99.90;;;;;;5080188;28;20020;-80
2023/08/23 05:46:20;;;;;;;0.00;0.00;;;24.50;99.90;;;;;;5082475;28;20520;-80
2023/08/23 05:48:45;;;;;;;0.00;0.00;;;24.60;99.90;;;;;;5083052;28;20020;-80
2023/08/23 05:51:11;;;;;;;0.53;0.53;;;24.70;99.90;;;;;;5078688;28;20058;-80
2023/08/23 05:53:37;;;;;;;0.00;0.00;;;24.90;99.90;;;;;;5081250;28;20254;-81
2023/08/23 05:56:03;;;;;;;0.00;0.00;;;25.10;99.90;;;;;;5077644;28;20508;-80
2023/08/23 05:58:29;;;;;;;0.20;0.20;;;25.20;99.90;;;;;;5079696;28;20020;-81
2023/08/23 06:00:57;;;;;;;0.00;0.00;;;25.40;99.90;;;;;;5072656;28;20036;-81
2023/08/23 06:03:23;;;;;;;0.00;0.00;;;25.70;99.90;;;;;;5059654;28;20441;-80
2023/08/23 06:05:56;;;;;;;0.05;0.05;;;26.00;99.90;;;;;;5073440;28;20033;-79
2023/08/23 06:08:22;;;;;;;0.30;0.25;;;26.20;99.90;;;;;;5055760;28;20036;-80
2023/08/23 06:10:48;;;;;;;0.05;0.05;;;26.40;99.90;;;;;;5049992;28;20051;-82
2023/08/23 06:13:14;;;;;;;0.25;0.25;;;26.50;99.90;;;;;;5066567;28;20391;-80
2023/08/23 06:15:40;;;;;;;0.00;0.00;;;26.90;99.90;;;;;;5074025;28;20040;-80
2023/08/23 06:18:05;;;;;;;0.15;0.15;;;27.10;99.90;;;;;;5075495;28;20044;-80
2023/08/23 06:20:31;;;;;;;0.00;0.00;;;27.10;99.90;;;;;;5073143;28;20108;-81
2023/08/23 06:22:58;;;;;;;0.10;0.10;;;27.20;99.90;;;;;;5065898;28;20551;-83
2023/08/23 06:25:24;;;;;;;0.00;0.00;;;27.60;99.90;;;;;;5070478;28;20035;-79
2023/08/23 06:27:50;;;;;;;0.25;0.25;;;27.70;99.90;;;;;;5069945;28;20064;-77
2023/08/23 06:30:16;;;;;;;0.00;0.00;;;27.90;99.90;;;;;;5081401;28;20024;-80
2023/08/23 06:32:48;;;;;;;0.00;0.00;;;27.90;99.70;;;;;;5080572;28;20120;-79
2023/08/23 06:35:15;;;;;;;0.73;0.15;;;28.00;99.50;;;;;;5080162;28;20048;-78
2023/08/23 06:37:41;;;;;;;0.52;0.32;;;28.20;98.80;;;;;;5080051;28;20482;-80
2023/08/23 06:40:08;;;;;;;0.25;0.25;;;28.50;98.30;;;;;;5063913;28;20048;-82
2023/08/23 06:42:34;;;;;;;0.30;0.10;;;28.50;97.80;;;;;;5076114;28;20467;-80
2023/08/23 06:45:00;;;;;;;0.00;0.00;;;28.70;97.10;;;;;;5077177;28;20115;-79
2023/08/23 06:47:25;;;;;;;0.00;0.00;;;28.90;97.70;;;;;;5052785;28;20024;-79
2023/08/23 06:49:51;;;;;;;0.00;0.00;;;29.00;96.70;;;;;;5079720;28;20060;-80
2023/08/23 06:52:17;;;;;;;0.22;0.22;;;29.20;96.50;;;;;;5072349;28;20382;-79
2023/08/23 06:54:42;;;;;;;0.15;0.15;;;29.30;95.80;;;;;;5072135;28;20372;-78
2023/08/23 06:57:08;;;;;;;0.25;0.25;;;29.30;96.10;;;;;;5056579;28;20105;-79
2023/08/23 06:59:34;;;;;;;0.10;0.10;;;29.70;95.10;;;;;;5074453;28;20020;-79
2023/08/23 07:01:59;;;;;;;0.00;0.00;;;29.70;94.70;;;;;;5072218;28;20039;-78
2023/08/23 07:04:25;;;;;;;;;;;30.50;93.80;;;;;;5076507;28;20630;-78
2023/08/23 07:06:51;;;;;;;0.00;0.00;;;30.50;92.30;;;;;;5068947;28;20818;-81
2023/08/23 07:09:16;;;;;;;;;;;30.40;92.70;;;;;;5066788;28;20020;-82
2023/08/23 07:11:42;;;;;;;0.13;0.13;;;30.90;91.70;;;;;;5078246;28;19960;-79
2023/08/23 07:14:09;;;;;;;;;;;31.00;91.70;;;;;;5076972;28;20069;-80
2023/08/23 07:16:35;;;;;;;0.40;0.40;;;30.80;91.30;;;;;;5069326;28;19963;-80
2023/08/23 07:19:02;;;;;;;;;;;30.80;90.50;;;;;;5082804;28;20070;-78
2023/08/23 07:21:29;;;;;;;1.17;0.65;;;31.00;90.50;;;;;;5082575;28;19904;-78
2023/08/23 07:23:55;;;;;;;0.00;0.00;;;31.20;88.50;;;;;;5069412;28;20431;-80
2023/08/23 07:26:21;;;;;;;0.00;0.00;;;31.80;89.00;;;;;;5084100;28;20079;-79
2023/08/23 07:28:47;;;;;;;0.00;0.00;;;32.00;87.60;;;;;;5082155;28;20439;-81
2023/08/23 07:31:12;;;;;;;0.00;0.00;;;31.90;85.60;;;;;;5084498;28;20529;-78
2023/08/23 07:33:38;;;;;;;0.28;0.28;;;32.20;85.50;;;;;;5085387;28;20020;-80
2023/08/23 07:36:04;;;;;;;0.00;0.00;;;33.10;84.00;;;;;;5083608;28;20030;-79
2023/08/23 07:38:32;;;;;;;0.00;0.00;;;32.80;83.40;;;;;;5072552;28;20016;-79
2023/08/23 07:40:59;;;;;;;0.00;0.00;;;32.90;83.70;;;;;;5080944;28;20020;-79
2023/08/23 07:43:25;;;;;;;0.00;0.00;;;33.10;83.00;;;;;;5072588;28;20115;-80
2023/08/23 07:45:58;;;;;;;0.00;0.00;;;32.90;82.00;;;;;;5079053;28;20082;-78
2023/08/23 07:48:25;;;;;;;0.00;0.00;;;33.40;82.30;;;;;;5066026;28;20047;-79
2023/08/23 07:50:52;;;;;;;0.57;0.45;;;33.40;79.50;;;;;;5081501;28;20064;-79
2023/08/23 07:53:18;;;;;;;0.00;0.00;;;33.40;80.50;;;;;;5074634;28;20582;-79
2023/08/23 07:55:44;;;;;;;0.10;0.10;;;33.40;77.60;;;;;;5073237;28;20047;-79
2023/08/23 07:58:13;;;;;;;0.00;0.00;;;34.50;76.00;;;;;;5077835;28;20158;-80
2023/08/23 08:00:38;;;;;;;0.00;0.00;;;34.40;75.60;;;;;;5078858;28;20017;-79
2023/08/23 08:03:04;;;;;;;0.00;0.00;;;34.40;77.10;;;;;;5056057;28;20067;-79
2023/08/23 08:05:30;;;;;;;0.00;0.00;;;34.70;74.40;;;;;;5071181;28;20085;-80
2023/08/23 08:07:56;;;;;;;0.00;0.00;;;35.10;73.70;;;;;;5077273;28;20104;-79
2023/08/23 08:10:22;;;;;;;0.43;0.30;;;35.30;73.30;;;;;;5073022;28;20021;-79
2023/08/23 08:12:48;;;;;;;0.15;0.15;;;35.50;72.10;;;;;;5073175;28;20020;-79
2023/08/23 08:15:15;;;;;;;0.00;0.00;;;36.40;71.20;;;;;;5073318;28;20028;-80
2023/08/23 08:17:40;;;;;;;0.00;0.00;;;36.80;69.40;;;;;;5077716;28;20013;-79
2023/08/23 08:20:09;;;;;;;0.17;0.10;;;36.40;69.00;;;;;;5071278;28;20078;-78
2023/08/23 08:22:35;;;;;;;0.10;0.10;;;37.00;68.40;;;;;;5062686;28;20127;-79
2023/08/23 08:25:01;;;;;;;0.00;0.00;;;36.80;68.00;;;;;;5058596;28;20060;-78
2023/08/23 08:27:27;;;;;;;0.00;0.00;;;37.40;69.40;;;;;;5073110;28;20128;-79
2023/08/23 08:29:52;;;;;;;0.00;0.00;;;37.00;67.20;;;;;;5069251;28;20110;-80
2023/08/23 08:32:18;;;;;;;0.00;0.00;;;37.50;67.80;;;;;;5071694;28;20060;-78
2023/08/23 08:34:44;;;;;;;0.00;0.00;;;37.00;66.10;;;;;;5081128;28;20209;-79
2023/08/23 08:37:11;;;;;;;0.08;0.08;;;37.30;65.40;;;;;;5082625;28;20035;-80
2023/08/23 08:39:36;;;;;;;0.10;0.10;;;37.50;65.90;;;;;;5082620;28;20493;-79
2023/08/23 08:42:03;;;;;;;0.03;0.03;;;37.60;64.30;;;;;;5082562;28;20028;-80
2023/08/23 08:44:29;;;;;;;0.00;0.00;;;37.60;63.20;;;;;;5082401;28;20089;-79
2023/08/23 08:46:54;;;;;;;0.00;0.00;;;37.60;63.50;;;;;;5082496;28;20021;-79
2023/08/23 08:49:20;;;;;;;0.00;0.00;;;37.70;65.40;;;;;;5081226;28;20024;-81
2023/08/23 08:51:47;;;;;;;0.00;0.00;;;38.00;63.20;;;;;;5072518;28;20024;-82
2023/08/23 08:54:17;;;;;;;0.00;0.00;;;38.30;63.60;;;;;;5080023;28;20082;-79
2023/08/23 08:56:47;;;;;;;0.10;0.10;;;38.30;62.70;;;;;;5080274;28;20029;-79
2023/08/23 08:59:16;;;;;;;0.10;0.10;;;39.00;60.40;;;;;;5058096;28;20136;-81
2023/08/23 09:01:44;;;;;;;0.22;0.22;;;39.20;60.30;;;;;;5059624;28;20280;-78
2023/08/23 09:04:13;;;;;;;0.00;0.00;;;39.40;62.50;;;;;;5052313;28;20041;-78
2023/08/23 09:06:40;;;;;;;0.00;0.00;;;39.30;61.40;;;;;;5071778;28;20031;-79
2023/08/23 09:09:07;;;;;;;0.00;0.00;;;39.70;59.00;;;;;;5083202;28;20027;-78
2023/08/23 09:11:34;;;;;;;0.00;0.00;;;39.50;59.40;;;;;;5077349;28;20397;-82
2023/08/23 09:14:20;;;;;;;0.10;0.10;;;39.60;61.70;;;;;;5063827;28;20028;-79
2023/08/23 09:16:49;;;;;;;0.00;0.00;;;39.40;59.90;;;;;;5070093;28;20068;-77
2023/08/23 09:19:15;;;;;;;0.10;0.10;;;39.80;59.30;;;;;;5072375;28;20028;-78
2023/08/23 09:21:49;;;;;;;0.00;0.00;;;39.40;59.70;;;;;;5082718;28;20027;-78
2023/08/23 09:24:16;;;;;;;0.00;0.00;;;40.00;59.20;;;;;;5063777;28;20024;-80
2023/08/23 09:26:43;;;;;;;0.00;0.00;;;39.70;57.50;;;;;;5076725;28;20095;-78
2023/08/23 09:29:09;;;;;;;0.00;0.00;;;39.70;57.20;;;;;;5075279;28;20027;-78
2023/08/23 09:31:35;;;;;;;0.00;0.00;;;40.30;56.90;;;;;;5081555;28;20024;-79
2023/08/23 09:34:01;;;;;;;0.00;0.00;;;40.80;58.80;;;;;;5083482;28;20026;-78
2023/08/23 09:36:39;;;;;;;0.00;0.00;;;40.50;57.30;;;;;;5083461;28;20027;-79
2023/08/23 09:39:09;;;;;;;0.00;0.00;;;40.40;56.40;;;;;;5081434;28;20020;-79
2023/08/23 09:41:40;;;;;;;0.10;0.10;;;40.90;55.30;;;;;;5079710;28;20020;-78
2023/08/23 09:44:06;;;;;;;0.08;0.08;;;41.50;57.50;;;;;;5079838;28;20028;-80
2023/08/23 09:46:39;;;;;;;1.25;0.80;;;40.60;56.90;;;;;;5079034;28;20038;-78
2023/08/23 09:49:06;;;;;;;0.00;0.00;;;40.30;56.20;;;;;;5059922;28;20056;-80
2023/08/23 09:51:37;;;;;;;0.00;0.00;;;41.30;54.40;;;;;;5082568;28;20112;-79
2023/08/23 09:54:18;;;;;;;0.00;0.00;;;41.20;56.10;;;;;;5073347;28;20803;-80
2023/08/23 09:56:44;;;;;;;0.00;0.00;;;41.20;55.70;;;;;;5079638;28;20020;-79
2023/08/23 09:59:10;;;;;;;0.00;0.00;;;41.70;56.00;;;;;;5074095;28;20052;-78
2023/08/23 10:01:37;;;;;;;0.00;0.00;;;41.00;55.10;;;;;;5081622;28;20020;-78
2023/08/23 10:04:03;;;;;;;0.00;0.00;;;41.50;55.80;;;;;;5082402;28;20501;-81
2023/08/23 10:06:30;;;;;;;0.20;0.20;;;41.90;53.80;;;;;;5082815;28;20110;-80
2023/08/23 10:08:57;;;;;;;0.00;0.00;;;41.10;53.90;;;;;;5081820;28;20027;-78
2023/08/23 10:11:25;;;;;;;0.00;0.00;;;42.10;55.80;;;;;;5076324;28;20019;-80
2023/08/23 10:13:52;;;;;;;0.00;0.00;;;41.40;51.20;;;;;;5077111;28;20027;-78
2023/08/23 10:16:19;;;;;;;0.00;0.00;;;41.30;55.10;;;;;;5082230;28;20040;-79
2023/08/23 10:18:45;;;;;;;0.00;0.00;;;41.00;53.70;;;;;;5084801;28;20088;-79
2023/08/23 10:21:11;;;;;;;0.00;0.00;;;41.30;55.00;;;;;;5064055;28;20784;-78
2023/08/23 10:23:37;;;;;;;0.00;0.00;;;40.00;54.90;;;;;;5070373;28;20021;-79
2023/08/23 10:26:03;;;;;;;0.00;0.00;;;39.00;56.20;;;;;;5070484;28;20039;-78
2023/08/23 10:28:29;;;;;;;0.00;0.00;;;38.40;58.90;;;;;;5079095;28;20552;-78
2023/08/23 10:30:58;;;;;;;0.00;0.00;;;38.10;60.00;;;;;;5083143;28;20142;-79
2023/08/23 10:33:24;;;;;;;0.00;0.00;;;37.90;60.50;;;;;;5076520;28;20028;-79
2023/08/23 10:35:50;;;;;;;0.22;0.22;;;37.30;62.60;;;;;;5081872;28;20024;-80
2023/08/23 10:38:16;;;;;;;0.05;0.05;;;36.80;62.50;;;;;;5081995;28;20505;-79
2023/08/23 10:40:47;;;;;;;0.08;0.08;;;37.00;64.30;;;;;;5074697;28;20017;-78
2023/08/23 10:43:22;;;;;;;0.00;0.00;;;37.00;64.80;;;;;;5062652;28;20886;-78
2023/08/23 10:46:02;;;;;;;0.00;0.00;;;37.10;66.90;;;;;;5082179;28;20097;-80
2023/08/23 10:48:28;;;;;;;0.00;0.00;;;36.90;63.60;;;;;;5074940;28;20402;-79
2023/08/23 10:50:54;;;;;;;0.35;0.35;;;36.30;66.00;;;;;;5078779;28;20612;-78
2023/08/23 10:53:21;;;;;;;0.00;0.00;;;36.40;65.90;;;;;;5063169;28;20148;-78
2023/08/23 10:55:47;;;;;;;1.20;0.38;;;36.50;65.30;;;;;;5082549;28;20024;-78
2023/08/23 10:58:14;;;;;;;0.00;0.00;;;36.90;69.30;;;;;;5064326;28;20678;-79
2023/08/23 11:00:45;;;;;;;0.00;0.00;;;36.60;66.90;;;;;;5056138;28;20600;-79
2023/08/23 11:03:12;;;;;;;0.00;0.00;;;36.50;66.50;;;;;;5078469;28;20061;-78
2023/08/23 11:05:38;;;;;;;0.00;0.00;;;36.10;65.60;;;;;;5081326;28;20020;-78
2023/08/23 11:08:05;;;;;;;0.65;0.32;;;36.30;67.90;;;;;;5086085;28;20012;-79
2023/08/23 11:10:31;;;;;;;0.00;0.00;;;36.40;67.50;;;;;;5086481;28;20028;-78
2023/08/23 11:12:57;;;;;;;0.00;0.00;;;36.20;65.80;;;;;;5079432;28;20023;-78
2023/08/23 11:15:24;;;;;;;0.00;0.00;;;36.30;66.00;;;;;;5073123;28;20044;-80
2023/08/23 11:17:50;;;;;;;0.00;0.00;;;36.40;70.80;;;;;;5067108;28;20082;-79
2023/08/23 11:20:16;;;;;;;0.00;0.00;;;36.20;67.20;;;;;;5057036;28;20028;-81
2023/08/23 11:22:43;;;;;;;0.00;0.00;;;36.30;69.40;;;;;;5072651;28;20013;-78
2023/08/23 11:25:09;;;;;;;0.00;0.00;;;36.20;67.40;;;;;;5079093;28;20043;-79
2023/08/23 11:27:34;;;;;;;0.08;0.08;;;36.10;67.00;;;;;;5079604;28;20020;-78
2023/08/23 11:30:01;;;;;;;0.00;0.00;;;36.00;64.60;;;;;;5085327;28;20025;-79
2023/08/23 11:32:27;;;;;;;0.00;0.00;;;36.10;68.70;;;;;;5067074;28;20524;-79
2023/08/23 11:34:56;;;;;;;0.10;0.10;;;36.00;66.00;;;;;;5064882;28;20071;-78
2023/08/23 11:37:23;;;;;;;0.00;0.00;;;35.80;68.80;;;;;;5085321;28;20099;-79
2023/08/23 11:40:15;;;;;;;0.00;0.00;;;35.80;66.20;;;;;;5065568;28;20496;-80
2023/08/23 11:42:41;;;;;;;0.00;0.00;;;35.70;65.20;;;;;;5078510;28;20029;-79
2023/08/23 11:45:07;;;;;;;0.00;0.00;;;35.50;64.00;;;;;;5067677;28;20025;-79
2023/08/23 11:47:35;;;;;;;0.00;0.00;;;35.70;67.40;;;;;;5076605;28;20012;-79
2023/08/23 11:50:02;;;;;;;0.00;0.00;;;35.50;63.40;;;;;;5067922;28;20024;-78
2023/08/23 11:52:31;;;;;;;0.00;0.00;;;35.40;63.30;;;;;;5080969;28;20099;-80
2023/08/23 11:54:58;;;;;;;0.00;0.00;;;35.40;67.70;;;;;;5069913;28;20036;-78
2023/08/23 11:57:24;;;;;;;0.00;0.00;;;35.40;65.80;;;;;;5074959;28;20019;-78
2023/08/23 11:59:50;;;;;;;0.00;0.00;;;35.40;65.40;;;;;;5069035;28;20029;-80
2023/08/23 12:02:16;;;;;;;0.00;0.00;;;35.40;63.10;;;;;;5075004;28;20042;-78
2023/08/23 12:04:42;;;;;;;0.25;0.20;;;35.40;65.20;;;;;;5084865;28;20059;-79
2023/08/23 12:07:09;;;;;;;0.20;0.20;;;35.40;66.20;;;;;;5067287;28;20081;-80
2023/08/23 12:09:36;;;;;;;0.08;0.08;;;35.30;66.40;;;;;;5082029;28;20030;-79
2023/08/23 12:12:03;;;;;;;0.05;0.05;;;35.20;64.40;;;;;;5063463;28;20020;-80
2023/08/23 12:14:29;;;;;;;0.00;0.00;;;35.20;69.70;;;;;;5066010;28;20024;-78
2023/08/23 12:16:55;;;;;;;0.00;0.00;;;35.20;66.40;;;;;;5084630;28;20074;-79
2023/08/23 12:19:21;;;;;;;0.60;0.55;;;35.20;68.30;;;;;;5079441;28;20103;-79
2023/08/23 12:21:48;;;;;;;0.00;0.00;;;35.20;67.60;;;;;;5062722;28;20020;-79
2023/08/23 12:24:13;;;;;;;0.00;0.00;;;35.20;67.40;;;;;;5082634;28;20020;-78
2023/08/23 12:26:39;;;;;;;0.00;0.00;;;35.20;67.10;;;;;;5065706;28;20031;-78
2023/08/23 12:29:05;;;;;;;0.00;0.00;;;35.10;68.80;;;;;;5078690;28;20032;-79
2023/08/23 12:31:30;;;;;;;0.00;0.00;;;35.10;68.70;;;;;;5073230;28;20103;-78
2023/08/23 12:33:56;;;;;;;0.20;0.20;;;35.00;64.20;;;;;;5075389;28;20061;-80
2023/08/23 12:36:22;;;;;;;0.08;0.08;;;35.00;66.00;;;;;;5083948;28;20111;-77
2023/08/23 12:38:49;;;;;;;0.00;0.00;;;35.00;65.10;;;;;;5067044;28;20024;-78
2023/08/23 12:41:14;;;;;;;0.00;0.00;;;34.80;64.40;;;;;;5074778;28;20031;-78
2023/08/23 12:43:40;;;;;;;0.00;0.00;;;34.80;63.90;;;;;;5076460;28;20052;-79
2023/08/23 12:46:06;;;;;;;0.52;0.43;;;34.90;63.00;;;;;;5074377;28;20578;-78
2023/08/23 12:48:31;;;;;;;0.00;0.00;;;34.80;59.90;;;;;;5084043;28;20020;-78